Time;durP1;ratioP1;P1;durP2;ratioP2;P2;SDS_P1;SDS_P2;PMS_P1;PMS_P2;Temp;Humidity;BMP_temperature;BMP_pressure;BME280_temperature;BME280_humidity;BME280_pressure;Samples;Min_cycle;Max_cycle;Signal;HPM_P1;HPM_P2
2022/06/14 00:00:53;;;;;;;;;;;26.10;34.80;;;;;;5094425;28;949;-38
2022/06/14 00:02:26;;;;;;;;;;;26.00;34.90;;;;;;5094786;28;1181;-38
2022/06/14 00:04:54;;;;;;;;;;;26.10;34.90;;;;;;5094332;28;1977;-37
2022/06/14 00:07:21;;;;;;;;;;;26.10;35.00;;;;;;5094938;28;1824;-38
2022/06/14 00:09:48;;;;;;;;;;;26.10;35.00;;;;;;5094696;28;972;-37
2022/06/14 00:12:14;;;;;;;;;;;26.10;35.00;;;;;;5094105;28;980;-38
2022/06/14 00:14:41;;;;;;;;;;;26.10;35.10;;;;;;5094733;28;941;-38
2022/06/14 00:17:08;;;;;;;;;;;26.10;35.10;;;;;;5093741;28;1250;-39
2022/06/14 00:19:34;;;;;;;;;;;26.10;35.10;;;;;;5094796;28;952;-39
2022/06/14 00:22:03;;;;;;;;;;;26.10;34.90;;;;;;5097804;28;964;-38
2022/06/14 00:24:30;;;;;;;;;;;26.10;35.00;;;;;;5099010;28;1937;-38
2022/06/14 00:26:57;;;;;;;;;;;26.10;35.00;;;;;;5098653;28;984;-38
2022/06/14 00:29:23;;;;;;;;;;;26.10;35.20;;;;;;5099162;28;975;-38
2022/06/14 00:31:50;;;;;;;;;;;26.10;35.20;;;;;;5100487;28;956;-37
2022/06/14 00:34:17;;;;;;;;;;;26.10;35.10;;;;;;5099031;28;1009;-38
2022/06/14 00:36:51;;;;;;;;;;;26.10;35.00;;;;;;5097642;28;1050;-37
2022/06/14 00:39:19;;;;;;;;;;;26.20;35.20;;;;;;5099002;28;926;-38
2022/06/14 00:41:47;;;;;;;;;;;26.20;34.90;;;;;;5098812;28;976;-36
2022/06/14 00:44:15;;;;;;;;;;;26.30;34.90;;;;;;5098704;28;1905;-37
2022/06/14 00:46:49;;;;;;;;;;;26.30;34.70;;;;;;5099507;28;978;-38
2022/06/14 00:49:17;;;;;;;;;;;26.30;34.70;;;;;;5099003;28;1024;-38
2022/06/14 00:51:48;;;;;;;;;;;26.30;34.70;;;;;;5099504;28;1062;-38
2022/06/14 00:54:16;;;;;;;;;;;26.30;34.70;;;;;;5098973;28;1064;-38
2022/06/14 00:56:48;;;;;;;;;;;26.40;34.80;;;;;;5099443;28;1012;-39
2022/06/14 00:59:18;;;;;;;;;;;26.30;34.70;;;;;;5099221;28;1014;-40
2022/06/14 01:01:44;;;;;;;;;;;26.50;34.60;;;;;;5099146;28;972;-38
2022/06/14 01:04:14;;;;;;;;;;;26.40;34.60;;;;;;5099524;28;1921;-38
2022/06/14 01:06:45;;;;;;;;;;;26.40;34.60;;;;;;5099564;28;952;-38
2022/06/14 01:09:14;;;;;;;;;;;26.50;34.60;;;;;;5098643;28;1023;-38
2022/06/14 01:11:42;;;;;;;;;;;26.60;35.60;;;;;;5099371;28;897;-38
2022/06/14 01:14:11;;;;;;;;;;;26.50;34.50;;;;;;5098294;28;938;-38
2022/06/14 01:16:38;;;;;;;;;;;26.50;34.40;;;;;;5098908;28;1012;-39
2022/06/14 01:19:06;;;;;;;;;;;26.40;34.60;;;;;;5099435;28;970;-38
2022/06/14 01:21:33;;;;;;;;;;;26.40;34.70;;;;;;5099691;28;1007;-38
2022/06/14 01:24:01;;;;;;;;;;;26.50;34.60;;;;;;5097501;28;1914;-38
2022/06/14 01:26:30;;;;;;;;;;;26.50;34.50;;;;;;5098327;28;946;-38
2022/06/14 01:28:58;;;;;;;;;;;26.50;34.60;;;;;;5097942;28;946;-39
2022/06/14 01:31:26;;;;;;;;;;;26.40;35.90;;;;;;5098130;28;953;-38
2022/06/14 01:33:56;;;;;;;;;;;26.40;34.80;;;;;;5098239;28;877;-38
2022/06/14 01:36:25;;;;;;;;;;;26.40;34.70;;;;;;5099143;28;982;-38
2022/06/14 01:38:52;;;;;;;;;;;26.40;34.80;;;;;;5099004;28;916;-38
2022/06/14 01:41:28;;;;;;;;;;;26.40;34.80;;;;;;5099221;28;937;-38
2022/06/14 01:44:13;;;;;;;;;;;26.40;34.80;;;;;;5098542;28;1914;-38
2022/06/14 01:46:45;;;;;;;;;;;26.50;34.70;;;;;;5088918;28;1531;-38
2022/06/14 01:52:05;;;;;;;;;;;26.40;34.80;;;;;;5098552;28;687;-37
2022/06/14 01:54:36;;;;;;;;;;;26.40;34.70;;;;;;5099054;28;981;-38
2022/06/14 01:57:10;;;;;;;;;;;26.50;34.70;;;;;;5099511;28;981;-38
2022/06/14 01:59:46;;;;;;;;;;;26.50;34.60;;;;;;5099571;28;1038;-38
2022/06/14 02:02:17;;;;;;;;;;;26.50;34.70;;;;;;5099563;28;932;-38
2022/06/14 02:04:45;;;;;;;;;;;26.40;34.80;;;;;;5099565;28;2296;-38
2022/06/14 02:07:15;;;;;;;;;;;26.40;34.70;;;;;;5099140;28;861;-37
2022/06/14 02:13:00;;;;;;;;;;;26.40;34.80;;;;;;5098307;28;621;-38
2022/06/14 02:15:32;;;;;;;;;;;26.40;34.70;;;;;;5098275;28;1020;-38
2022/06/14 02:18:03;;;;;;;;;;;26.40;34.80;;;;;;5098161;28;1032;-38
2022/06/14 02:20:34;;;;;;;;;;;26.40;34.80;;;;;;5097939;28;1010;-39
2022/06/14 02:23:02;;;;;;;;;;;26.40;34.80;;;;;;5097548;28;900;-37
2022/06/14 02:25:31;;;;;;;;;;;26.50;34.80;;;;;;5097780;28;1972;-37
2022/06/14 02:28:02;;;;;;;;;;;26.40;34.80;;;;;;5098246;28;986;-38
2022/06/14 02:30:30;;;;;;;;;;;26.40;34.70;;;;;;5098500;28;996;-38
2022/06/14 02:32:59;;;;;;;;;;;26.40;34.70;;;;;;5097530;28;947;-39
2022/06/14 02:35:29;;;;;;;;;;;26.50;34.80;;;;;;5098453;28;1068;-37
2022/06/14 02:37:57;;;;;;;;;;;26.40;34.80;;;;;;5097540;28;1774;-39
2022/06/14 02:40:28;;;;;;;;;;;26.50;34.80;;;;;;5097634;28;1858;-38
2022/06/14 02:42:57;;;;;;;;;;;26.50;34.70;;;;;;5097413;28;943;-38
2022/06/14 02:45:27;;;;;;;;;;;26.40;34.80;;;;;;5097187;28;1898;-39
2022/06/14 02:47:56;;;;;;;;;;;26.50;34.80;;;;;;5097993;28;940;-38
2022/06/14 02:50:25;;;;;;;;;;;26.50;34.60;;;;;;5097556;28;996;-39
2022/06/14 02:52:53;;;;;;;;;;;26.50;34.80;;;;;;5096165;28;1004;-37
2022/06/14 02:55:24;;;;;;;;;;;26.50;34.70;;;;;;5096721;28;928;-39
2022/06/14 02:57:54;;;;;;;;;;;26.50;34.70;;;;;;5096659;28;952;-38
2022/06/14 03:00:23;;;;;;;;;;;26.40;34.80;;;;;;5096401;28;984;-39
2022/06/14 03:02:54;;;;;;;;;;;26.40;34.80;;;;;;5096549;28;935;-38
2022/06/14 03:05:23;;;;;;;;;;;26.40;34.80;;;;;;5096847;28;1905;-38
2022/06/14 03:07:51;;;;;;;;;;;26.50;34.80;;;;;;5097241;28;1007;-39
2022/06/14 03:10:18;;;;;;;;;;;26.50;34.70;;;;;;5097463;28;980;-38
2022/06/14 03:12:47;;;;;;;;;;;26.50;34.70;;;;;;5096573;28;936;-38
2022/06/14 03:15:17;;;;;;;;;;;26.40;34.80;;;;;;5095781;28;999;-37
2022/06/14 03:17:50;;;;;;;;;;;26.50;34.80;;;;;;5096011;28;1035;-38
2022/06/14 03:20:23;;;;;;;;;;;26.40;34.80;;;;;;5096033;28;1015;-37
2022/06/14 03:22:55;;;;;;;;;;;26.40;34.80;;;;;;5096089;28;999;-39
2022/06/14 03:25:23;;;;;;;;;;;26.60;34.50;;;;;;5096367;28;1988;-37
2022/06/14 03:27:53;;;;;;;;;;;26.40;34.80;;;;;;5095937;28;1021;-39
2022/06/14 03:30:22;;;;;;;;;;;26.40;35.10;;;;;;5096040;28;944;-37
2022/06/14 03:32:53;;;;;;;;;;;26.40;34.80;;;;;;5096194;28;944;-39
2022/06/14 03:35:25;;;;;;;;;;;26.50;34.60;;;;;;5096060;28;984;-38
2022/06/14 03:37:52;;;;;;;;;;;26.50;34.70;;;;;;5095329;28;927;-39
2022/06/14 03:40:21;;;;;;;;;;;26.40;34.70;;;;;;5095280;28;888;-38
2022/06/14 03:42:47;;;;;;;;;;;26.50;34.80;;;;;;5095110;28;1008;-39
2022/06/14 03:45:16;;;;;;;;;;;26.60;34.60;;;;;;5094814;28;1981;-39
2022/06/14 03:47:43;;;;;;;;;;;26.50;34.70;;;;;;5095013;28;1030;-39
2022/06/14 03:50:13;;;;;;;;;;;26.50;34.80;;;;;;5094708;28;1043;-39
2022/06/14 03:52:49;;;;;;;;;;;26.50;34.80;;;;;;5095100;28;1011;-38
2022/06/14 03:55:24;;;;;;;;;;;26.40;34.80;;;;;;5098356;28;948;-39
2022/06/14 03:57:57;;;;;;;;;;;26.40;34.80;;;;;;5098364;28;984;-38
2022/06/14 04:00:32;;;;;;;;;;;26.40;34.90;;;;;;5098733;28;936;-39
2022/06/14 04:03:10;;;;;;;;;;;26.30;35.10;;;;;;5099214;28;940;-39
2022/06/14 04:05:42;;;;;;;;;;;26.40;35.00;;;;;;5098657;28;1976;-39
2022/06/14 04:08:15;;;;;;;;;;;26.40;34.80;;;;;;5097499;28;923;-39
2022/06/14 04:10:45;;;;;;;;;;;26.50;34.80;;;;;;5098586;28;1002;-39
2022/06/14 04:13:15;;;;;;;;;;;26.60;34.70;;;;;;5098864;28;1003;-38
2022/06/14 04:15:45;;;;;;;;;;;26.40;34.80;;;;;;5098803;28;980;-38
2022/06/14 04:18:38;;;;;;;;;;;26.50;34.60;;;;;;5098060;28;1019;-39
2022/06/14 04:21:09;;;;;;;;;;;26.50;34.50;;;;;;5099137;28;984;-39
2022/06/14 04:23:41;;;;;;;;;;;26.50;34.50;;;;;;5098568;28;1113;-40
2022/06/14 04:26:11;;;;;;;;;;;26.60;34.70;;;;;;5098073;28;1964;-39
2022/06/14 04:28:41;;;;;;;;;;;26.50;34.80;;;;;;5099128;28;873;-39
2022/06/14 04:31:11;;;;;;;;;;;26.50;34.70;;;;;;5098893;28;1064;-40
2022/06/14 04:33:42;;;;;;;;;;;26.60;34.60;;;;;;5098714;28;981;-39
2022/06/14 04:36:11;;;;;;;;;;;26.60;35.70;;;;;;5097887;28;943;-40
2022/06/14 04:38:42;;;;;;;;;;;26.60;34.50;;;;;;5097871;28;1034;-39
2022/06/14 04:41:12;;;;;;;;;;;26.50;34.50;;;;;;5097869;28;1021;-39
2022/06/14 04:43:41;;;;;;;;;;;26.60;34.50;;;;;;5097328;28;980;-39
2022/06/14 04:46:09;;;;;;;;;;;26.60;34.70;;;;;;5097700;28;1906;-38
2022/06/14 04:48:42;;;;;;;;;;;26.60;34.30;;;;;;5097922;28;1014;-39
2022/06/14 04:51:12;;;;;;;;;;;26.60;34.40;;;;;;5097541;28;933;-39
2022/06/14 04:53:42;;;;;;;;;;;26.50;34.70;;;;;;5097418;28;990;-39
2022/06/14 04:56:11;;;;;;;;;;;26.60;34.60;;;;;;5097028;28;977;-39
2022/06/14 04:58:40;;;;;;;;;;;26.60;34.60;;;;;;5096987;28;1050;-39
2022/06/14 05:01:11;;;;;;;;;;;26.60;34.90;;;;;;5097170;28;1129;-39
2022/06/14 05:03:38;;;;;;;;;;;26.60;34.50;;;;;;5096886;28;996;-39
2022/06/14 05:06:07;;;;;;;;;;;26.70;34.30;;;;;;5095960;28;1906;-38
2022/06/14 05:08:35;;;;;;;;;;;26.70;34.10;;;;;;5096649;28;992;-38
2022/06/14 05:11:06;;;;;;;;;;;26.80;34.20;;;;;;5096637;28;1758;-38
2022/06/14 05:13:37;;;;;;;;;;;26.80;34.10;;;;;;5095952;28;1000;-39
2022/06/14 05:16:07;;;;;;;;;;;26.80;34.40;;;;;;5095596;28;1023;-39
2022/06/14 05:18:35;;;;;;;;;;;26.80;35.50;;;;;;5095777;28;992;-39
2022/06/14 05:21:04;;;;;;;;;;;26.80;34.20;;;;;;5094992;28;1002;-39
2022/06/14 05:23:34;;;;;;;;;;;26.80;34.40;;;;;;5094757;28;1020;-38
2022/06/14 05:26:03;;;;;;;;;;;26.70;34.30;;;;;;5093937;28;1901;-38
2022/06/14 05:28:36;;;;;;;;;;;26.70;34.30;;;;;;5094616;28;1018;-39
2022/06/14 05:31:09;;;;;;;;;;;26.70;34.50;;;;;;5094954;28;961;-38
2022/06/14 05:33:40;;;;;;;;;;;26.70;34.80;;;;;;5093805;28;917;-39
2022/06/14 05:36:10;;;;;;;;;;;26.70;34.50;;;;;;5093853;28;982;-39
2022/06/14 05:38:41;;;;;;;;;;;26.80;34.60;;;;;;5094675;28;905;-39
2022/06/14 05:41:11;;;;;;;;;;;26.80;34.70;;;;;;5092968;28;1674;-38
2022/06/14 05:43:43;;;;;;;;;;;26.70;34.90;;;;;;5095064;28;983;-39
2022/06/14 05:46:12;;;;;;;;;;;26.70;34.70;;;;;;5094659;28;1984;-40
2022/06/14 05:48:43;;;;;;;;;;;26.60;34.90;;;;;;5095402;28;945;-37
2022/06/14 05:51:11;;;;;;;;;;;26.60;34.70;;;;;;5094649;28;860;-39
2022/06/14 05:53:41;;;;;;;;;;;26.60;35.00;;;;;;5095875;28;1022;-38
2022/06/14 05:56:11;;;;;;;;;;;26.60;35.10;;;;;;5097446;28;1062;-38
2022/06/14 05:58:42;;;;;;;;;;;26.70;35.00;;;;;;5096703;28;944;-38
2022/06/14 06:01:11;;;;;;;;;;;26.70;35.00;;;;;;5095096;28;983;-37
2022/06/14 06:03:42;;;;;;;;;;;26.70;34.90;;;;;;5094735;28;996;-38
2022/06/14 06:06:11;;;;;;;;;;;26.60;35.00;;;;;;5094707;28;1914;-38
2022/06/14 06:08:40;;;;;;;;;;;26.60;35.00;;;;;;5094662;28;905;-37
2022/06/14 06:11:08;;;;;;;;;;;26.60;35.20;;;;;;5095272;28;1106;-38
2022/06/14 06:13:38;;;;;;;;;;;26.60;34.90;;;;;;5094219;28;876;-38
2022/06/14 06:16:08;;;;;;;;;;;26.60;35.40;;;;;;5094930;28;1019;-37
2022/06/14 06:18:37;;;;;;;;;;;26.50;35.60;;;;;;5093942;28;944;-39
2022/06/14 06:21:06;;;;;;;;;;;26.60;35.00;;;;;;5095098;28;1028;-38
2022/06/14 06:23:35;;;;;;;;;;;26.60;35.00;;;;;;5094100;28;932;-39
2022/06/14 06:26:02;;;;;;;;;;;26.60;34.90;;;;;;5094642;28;1902;-38
2022/06/14 06:28:29;;;;;;;;;;;26.60;35.50;;;;;;5094210;28;790;-39
2022/06/14 06:30:59;;;;;;;;;;;26.70;35.10;;;;;;5093918;28;1009;-38
2022/06/14 06:33:30;;;;;;;;;;;26.60;35.00;;;;;;5093712;28;944;-37
2022/06/14 06:36:04;;;;;;;;;;;26.70;35.00;;;;;;5093855;28;997;-39
2022/06/14 06:38:33;;;;;;;;;;;26.70;35.10;;;;;;5093881;28;1001;-39
2022/06/14 06:43:48;;;;;;;;;;;26.70;35.20;;;;;;5094660;28;995;-39
2022/06/14 06:46:17;;;;;;;;;;;26.60;35.50;;;;;;5094613;28;1906;-38
2022/06/14 06:48:48;;;;;;;;;;;26.70;35.70;;;;;;5094713;28;943;-41
2022/06/14 06:51:18;;;;;;;;;;;26.70;35.60;;;;;;5095176;28;876;-41
2022/06/14 06:53:48;;;;;;;;;;;26.60;35.70;;;;;;5094842;28;1023;-42
2022/06/14 06:56:19;;;;;;;;;;;26.60;35.70;;;;;;5094275;28;991;-41
2022/06/14 06:58:48;;;;;;;;;;;26.60;36.10;;;;;;5094084;28;987;-41
2022/06/14 07:01:17;;;;;;;;;;;26.60;35.90;;;;;;5094461;28;985;-41
2022/06/14 07:03:48;;;;;;;;;;;26.60;35.90;;;;;;5093984;28;1014;-40
2022/06/14 07:06:18;;;;;;;;;;;26.70;35.50;;;;;;5094358;28;1914;-39
2022/06/14 07:08:51;;;;;;;;;;;26.70;37.10;;;;;;5093018;28;1020;-38
2022/06/14 07:11:20;;;;;;;;;;;26.60;35.40;;;;;;5094038;28;1008;-40
2022/06/14 07:13:50;;;;;;;;;;;26.60;36.90;;;;;;5092446;28;969;-40
2022/06/14 07:16:20;;;;;;;;;;;26.50;36.10;;;;;;5093534;28;1071;-39
2022/06/14 07:18:51;;;;;;;;;;;26.50;36.20;;;;;;5094163;28;912;-40
2022/06/14 07:21:20;;;;;;;;;;;26.50;36.60;;;;;;5094431;28;943;-41
2022/06/14 07:23:50;;;;;;;;;;;26.60;36.50;;;;;;5094309;28;998;-41
2022/06/14 07:26:20;;;;;;;;;;;26.60;36.40;;;;;;5093227;28;1990;-38
2022/06/14 07:28:51;;;;;;;;;;;26.60;36.80;;;;;;5094197;28;1004;-38
2022/06/14 07:31:21;;;;;;;;;;;26.70;36.10;;;;;;5100328;28;1060;-38
2022/06/14 07:33:49;;;;;;;;;;;26.70;36.40;;;;;;5100656;28;1016;-40
2022/06/14 07:36:21;;;;;;;;;;;26.80;35.70;;;;;;5102335;28;841;-34
2022/06/14 07:38:49;;;;;;;;;;;26.90;36.00;;;;;;5102524;28;1015;-34
2022/06/14 07:41:21;;;;;;;;;;;26.70;36.10;;;;;;5100991;28;1872;-35
2022/06/14 07:43:54;;;;;;;;;;;26.70;36.50;;;;;;5100609;28;1007;-35
2022/06/14 07:46:27;;;;;;;;;;;26.70;36.40;;;;;;5100179;28;1913;-35
2022/06/14 07:48:59;;;;;;;;;;;26.60;37.00;;;;;;5100062;28;1015;-34
2022/06/14 07:51:29;;;;;;;;;;;26.60;36.30;;;;;;5099969;28;943;-35
2022/06/14 07:53:59;;;;;;;;;;;26.60;36.30;;;;;;5100240;28;995;-35
2022/06/14 07:56:30;;;;;;;;;;;26.60;36.50;;;;;;5099903;28;1120;-34
2022/06/14 07:58:59;;;;;;;;;;;26.60;36.60;;;;;;5098427;28;936;-34
2022/06/14 08:01:30;;;;;;;;;;;26.50;36.70;;;;;;5098544;28;1046;-34
2022/06/14 08:04:01;;;;;;;;;;;26.50;36.50;;;;;;5099826;28;1749;-35
2022/06/14 08:06:29;;;;;;;;;;;26.50;36.80;;;;;;5100174;28;1967;-35
2022/06/14 08:09:00;;;;;;;;;;;26.50;36.90;;;;;;5100360;28;936;-34
2022/06/14 08:11:30;;;;;;;;;;;26.60;36.60;;;;;;5100376;28;880;-34
2022/06/14 08:14:00;;;;;;;;;;;26.60;36.60;;;;;;5099650;28;996;-35
2022/06/14 08:16:27;;;;;;;;;;;26.60;36.40;;;;;;5099647;28;1095;-35
2022/06/14 08:18:59;;;;;;;;;;;26.60;36.50;;;;;;5099336;28;997;-34
2022/06/14 08:21:31;;;;;;;;;;;26.60;36.30;;;;;;5098870;28;1013;-35
2022/06/14 08:23:59;;;;;;;;;;;26.60;36.50;;;;;;5100694;28;985;-35
2022/06/14 08:26:27;;;;;;;;;;;26.60;36.80;;;;;;5100241;28;1987;-36
2022/06/14 08:28:57;;;;;;;;;;;26.60;36.60;;;;;;5099789;28;932;-34
2022/06/14 08:31:28;;;;;;;;;;;26.60;36.60;;;;;;5099900;28;872;-35
2022/06/14 08:33:57;;;;;;;;;;;26.60;36.70;;;;;;5100164;28;956;-34
2022/06/14 08:36:29;;;;;;;;;;;26.60;36.60;;;;;;5099732;28;955;-34
2022/06/14 08:38:59;;;;;;;;;;;26.60;36.90;;;;;;5099791;28;1022;-34
2022/06/14 08:41:37;;;;;;;;;;;26.50;37.80;;;;;;5097251;28;987;-34
2022/06/14 08:44:08;;;;;;;;;;;26.50;37.20;;;;;;5096818;28;1000;-34
2022/06/14 08:46:39;;;;;;;;;;;26.50;36.70;;;;;;5097194;28;1917;-34
2022/06/14 08:49:10;;;;;;;;;;;26.50;36.90;;;;;;5096860;28;955;-34
2022/06/14 08:51:45;;;;;;;;;;;26.60;36.60;;;;;;5096228;28;1007;-34
2022/06/14 08:54:31;;;;;;;;;;;26.60;37.00;;;;;;5096468;28;888;-34
2022/06/14 08:57:06;;;;;;;;;;;26.50;36.90;;;;;;5083028;28;2005;-34
2022/06/14 08:59:47;;;;;;;;;;;26.60;37.40;;;;;;5078997;28;972;-34
2022/06/14 09:02:25;;;;;;;;;;;26.60;36.80;;;;;;5079261;28;916;-35
2022/06/14 09:05:09;;;;;;;;;;;26.60;36.90;;;;;;5076111;28;1007;-35
2022/06/14 09:07:50;;;;;;;;;;;26.60;37.10;;;;;;5076016;28;1972;-35
2022/06/14 09:10:24;;;;;;;;;;;26.60;37.10;;;;;;5076052;28;1016;-35
2022/06/14 09:13:09;;;;;;;;;;;26.60;36.80;;;;;;5075482;28;940;-35
2022/06/14 09:15:54;;;;;;;;;;;26.60;37.20;;;;;;5075189;28;1012;-35
2022/06/14 09:18:37;;;;;;;;;;;26.60;36.60;;;;;;5034970;28;924;-35
2022/06/14 09:21:12;;;;;;;;;;;26.60;36.80;;;;;;5035809;28;968;-34
2022/06/14 09:23:46;;;;;;;;;;;26.50;36.60;;;;;;5035278;28;995;-34
2022/06/14 09:26:28;;;;;;;;;;;26.50;36.70;;;;;;5035650;28;1914;-34
2022/06/14 09:29:13;;;;;;;;;;;26.50;36.90;;;;;;5035405;28;1011;-34
2022/06/14 09:31:47;;;;;;;;;;;26.50;36.90;;;;;;5019789;28;1549;-34
2022/06/14 09:34:30;;;;;;;;;;;26.50;36.90;;;;;;5033740;28;1040;-35
2022/06/14 09:37:12;;;;;;;;;;;26.50;37.10;;;;;;5035668;28;864;-35
2022/06/14 09:39:51;;;;;;;;;;;26.50;36.70;;;;;;5035105;28;1895;-35
2022/06/14 09:42:24;;;;;;;;;;;26.50;37.10;;;;;;5016638;28;1012;-35
2022/06/14 09:45:02;;;;;;;;;;;26.60;36.80;;;;;;5013392;28;1025;-34
2022/06/14 09:47:48;;;;;;;;;;;26.50;36.70;;;;;;5010964;28;1910;-35
2022/06/14 09:50:33;;;;;;;;;;;26.50;37.00;;;;;;5013522;28;991;-34
2022/06/14 09:53:12;;;;;;;;;;;26.50;36.90;;;;;;5024791;28;969;-34
2022/06/14 09:55:50;;;;;;;;;;;26.50;36.50;;;;;;5048843;28;1202;-34
2022/06/14 09:58:32;;;;;;;;;;;26.50;36.70;;;;;;5040485;28;1595;-35
2022/06/14 10:01:06;;;;;;;;;;;26.50;36.90;;;;;;5055181;28;1374;-35
2022/06/14 10:04:00;;;;;;;;;;;26.50;36.80;;;;;;5039564;28;956;-35
2022/06/14 10:06:48;;;;;;;;;;;26.50;36.90;;;;;;5032278;28;1976;-34
2022/06/14 10:09:30;;;;;;;;;;;26.50;36.70;;;;;;5031982;28;988;-35
2022/06/14 10:12:11;;;;;;;;;;;26.50;37.10;;;;;;5028937;28;1179;-34
2022/06/14 10:14:44;;;;;;;;;;;26.50;36.90;;;;;;5039924;28;1580;-35
2022/06/14 10:17:26;;;;;;;;;;;26.50;36.80;;;;;;5077418;28;1166;-34
2022/06/14 10:20:09;;;;;;;;;;;26.50;36.90;;;;;;5081950;28;1491;-34
2022/06/14 10:22:43;;;;;;;;;;;26.50;36.90;;;;;;5094899;28;996;-34
2022/06/14 10:25:12;;;;;;;;;;;26.50;36.80;;;;;;5092768;28;1019;-34
2022/06/14 10:30:35;;;;;;;;;;;26.50;36.70;;;;;;5094268;28;955;-34
2022/06/14 10:33:20;;;;;;;;;;;26.50;36.90;;;;;;5094899;28;992;-34
2022/06/14 10:35:51;;;;;;;;;;;26.50;36.70;;;;;;5094335;28;1014;-34
2022/06/14 10:38:28;;;;;;;;;;;26.50;36.70;;;;;;5094386;28;968;-34
2022/06/14 10:40:57;;;;;;;;;;;26.50;36.90;;;;;;5095429;28;977;-34
2022/06/14 10:43:28;;;;;;;;;;;26.60;37.00;;;;;;5095108;28;975;-35
2022/06/14 10:45:57;;;;;;;;;;;26.60;36.80;;;;;;5095274;28;1883;-35
2022/06/14 10:48:33;;;;;;;;;;;26.50;36.70;;;;;;5093599;28;975;-34
2022/06/14 10:51:06;;;;;;;;;;;26.60;36.70;;;;;;5093827;28;1060;-34
2022/06/14 10:53:40;;;;;;;;;;;26.50;36.60;;;;;;5092601;28;943;-34
2022/06/14 10:56:21;;;;;;;;;;;26.50;36.60;;;;;;5093160;28;1118;-34
2022/06/14 10:59:00;;;;;;;;;;;26.50;37.00;;;;;;5090027;28;1284;-34
2022/06/14 11:01:34;;;;;;;;;;;26.60;37.00;;;;;;5093421;28;1062;-35
2022/06/14 11:04:08;;;;;;;;;;;26.60;36.60;;;;;;5094262;28;996;-35
2022/06/14 11:06:53;;;;;;;;;;;26.60;36.60;;;;;;5084055;28;1991;-35
2022/06/14 11:09:25;;;;;;;;;;;26.60;36.60;;;;;;5071213;28;971;-34
2022/06/14 11:12:02;;;;;;;;;;;26.60;36.60;;;;;;5071565;28;1027;-34
2022/06/14 11:14:35;;;;;;;;;;;26.60;36.70;;;;;;5073291;28;908;-34
2022/06/14 11:17:20;;;;;;;;;;;26.60;36.70;;;;;;5073178;28;1217;-34
2022/06/14 11:20:03;;;;;;;;;;;26.60;36.60;;;;;;5074943;28;1027;-34
2022/06/14 11:22:35;;;;;;;;;;;26.60;36.60;;;;;;5073423;28;919;-35
2022/06/14 11:25:08;;;;;;;;;;;26.60;36.70;;;;;;5073857;28;1038;-34
2022/06/14 11:27:37;;;;;;;;;;;26.60;36.60;;;;;;5073576;28;1973;-34
2022/06/14 11:30:14;;;;;;;;;;;26.60;36.70;;;;;;5073249;28;1004;-34
2022/06/14 11:32:46;;;;;;;;;;;26.60;36.50;;;;;;5073865;28;1026;-34
2022/06/14 11:35:18;;;;;;;;;;;26.60;36.50;;;;;;5076162;28;1026;-34
2022/06/14 11:37:49;;;;;;;;;;;26.60;36.50;;;;;;5075713;28;1043;-34
2022/06/14 11:40:19;;;;;;;;;;;26.60;36.40;;;;;;5075578;28;990;-34
2022/06/14 11:42:56;;;;;;;;;;;26.60;36.50;;;;;;5075934;28;940;-34
2022/06/14 11:45:31;;;;;;;;;;;26.60;36.40;;;;;;5077691;28;997;-35
2022/06/14 11:48:05;;;;;;;;;;;26.70;36.60;;;;;;5075959;28;1902;-34
2022/06/14 11:50:34;;;;;;;;;;;26.70;36.50;;;;;;5074052;28;1016;-35
2022/06/14 11:53:13;;;;;;;;;;;26.70;37.70;;;;;;5073933;28;936;-34
2022/06/14 11:55:41;;;;;;;;;;;26.70;36.60;;;;;;5073652;28;985;-34
2022/06/14 11:58:12;;;;;;;;;;;26.70;36.50;;;;;;5073795;28;976;-34
2022/06/14 12:00:47;;;;;;;;;;;26.70;36.50;;;;;;5080569;28;1483;-34
2022/06/14 12:03:24;;;;;;;;;;;26.70;36.60;;;;;;5093534;28;948;-34
2022/06/14 12:05:55;;;;;;;;;;;26.70;36.60;;;;;;5094803;28;1004;-34
2022/06/14 12:08:31;;;;;;;;;;;26.70;36.50;;;;;;5093289;28;1898;-34
2022/06/14 12:11:05;;;;;;;;;;;26.70;36.60;;;;;;5096102;28;1021;-34
2022/06/14 12:13:47;;;;;;;;;;;26.70;36.50;;;;;;5093415;28;1074;-34
2022/06/14 12:16:17;;;;;;;;;;;26.70;36.80;;;;;;5094999;28;1096;-35
2022/06/14 12:18:52;;;;;;;;;;;26.70;36.70;;;;;;5098245;28;1048;-35
2022/06/14 12:21:22;;;;;;;;;;;26.80;36.50;;;;;;5098023;28;976;-35
2022/06/14 12:23:51;;;;;;;;;;;26.90;36.50;;;;;;5099035;28;1008;-35
2022/06/14 12:26:34;;;;;;;;;;;27.00;36.90;;;;;;5098386;28;1006;-34
2022/06/14 12:29:03;;;;;;;;;;;27.00;36.70;;;;;;5099131;28;1040;-35
2022/06/14 12:31:38;;;;;;;;;;;27.00;36.60;;;;;;5099242;28;980;-35
2022/06/14 12:34:08;;;;;;;;;;;26.90;36.70;;;;;;5097493;28;916;-35
2022/06/14 12:36:42;;;;;;;;;;;26.80;36.40;;;;;;5098078;28;1094;-35
2022/06/14 12:39:13;;;;;;;;;;;27.00;36.60;;;;;;5098597;28;1097;-35
2022/06/14 12:41:45;;;;;;;;;;;26.90;36.40;;;;;;5099730;28;984;-35
2022/06/14 12:44:25;;;;;;;;;;;27.00;36.40;;;;;;5098690;28;952;-35
2022/06/14 12:46:55;;;;;;;;;;;27.00;36.40;;;;;;5099992;28;1969;-36
2022/06/14 12:49:25;;;;;;;;;;;27.10;35.90;;;;;;5098527;28;999;-35
2022/06/14 12:51:55;;;;;;;;;;;26.90;35.80;;;;;;5099868;28;995;-35
2022/06/14 12:54:34;;;;;;;;;;;26.90;35.90;;;;;;5098933;28;1785;-34
2022/06/14 12:57:06;;;;;;;;;;;26.80;35.70;;;;;;5098760;28;964;-37
2022/06/14 12:59:38;;;;;;;;;;;27.00;35.80;;;;;;5098271;28;1090;-37
2022/06/14 13:02:14;;;;;;;;;;;26.90;35.60;;;;;;5098554;28;1000;-36
2022/06/14 13:04:43;;;;;;;;;;;27.00;35.50;;;;;;5099202;28;1073;-36
2022/06/14 13:07:17;;;;;;;;;;;26.90;35.10;;;;;;5098618;28;1965;-36
2022/06/14 13:09:52;;;;;;;;;;;27.00;35.40;;;;;;5099186;28;992;-36
2022/06/14 13:12:25;;;;;;;;;;;27.00;35.20;;;;;;5098477;28;984;-36
2022/06/14 13:14:56;;;;;;;;;;;27.00;35.20;;;;;;5098444;28;928;-37
2022/06/14 13:17:34;;;;;;;;;;;27.00;35.20;;;;;;5097148;28;1174;-36
2022/06/14 13:20:07;;;;;;;;;;;27.00;35.20;;;;;;5100146;28;1179;-37
2022/06/14 13:22:43;;;;;;;;;;;26.90;35.10;;;;;;5097647;28;984;-37
2022/06/14 13:25:19;;;;;;;;;;;26.90;35.10;;;;;;5096987;28;984;-37
2022/06/14 13:27:50;;;;;;;;;;;26.90;35.10;;;;;;5097385;28;1979;-38
2022/06/14 13:30:19;;;;;;;;;;;26.90;34.90;;;;;;5097662;28;1023;-37
2022/06/14 13:32:55;;;;;;;;;;;26.90;35.00;;;;;;5096127;28;943;-37
2022/06/14 13:35:28;;;;;;;;;;;26.90;34.90;;;;;;5097817;28;1009;-37
2022/06/14 13:37:58;;;;;;;;;;;27.00;34.90;;;;;;5097000;28;984;-38
2022/06/14 13:40:29;;;;;;;;;;;27.10;34.60;;;;;;5097434;28;871;-38
2022/06/14 13:42:58;;;;;;;;;;;27.10;34.10;;;;;;5096885;28;952;-36
2022/06/14 13:45:28;;;;;;;;;;;27.10;34.10;;;;;;5097609;28;1024;-35
2022/06/14 13:47:59;;;;;;;;;;;27.00;33.90;;;;;;5097073;28;1901;-37
2022/06/14 13:50:28;;;;;;;;;;;26.90;33.70;;;;;;5097494;28;1028;-38
2022/06/14 13:52:56;;;;;;;;;;;26.90;34.00;;;;;;5097966;28;995;-37
2022/06/14 13:55:25;;;;;;;;;;;27.00;33.90;;;;;;5097815;28;1237;-38
2022/06/14 13:57:55;;;;;;;;;;;27.00;34.00;;;;;;5097216;28;988;-37
2022/06/14 14:00:25;;;;;;;;;;;27.00;34.20;;;;;;5098522;28;1071;-38
2022/06/14 14:02:56;;;;;;;;;;;27.00;34.00;;;;;;5097898;28;991;-36
2022/06/14 14:05:27;;;;;;;;;;;27.00;34.00;;;;;;5097990;28;1009;-37
2022/06/14 14:08:02;;;;;;;;;;;27.00;33.90;;;;;;5095816;28;1980;-37
2022/06/14 14:10:35;;;;;;;;;;;27.00;33.70;;;;;;5096739;28;1000;-37
2022/06/14 14:13:04;;;;;;;;;;;27.00;33.60;;;;;;5097223;28;939;-36
2022/06/14 14:15:35;;;;;;;;;;;27.00;33.60;;;;;;5097620;28;1015;-36
2022/06/14 14:18:07;;;;;;;;;;;27.10;34.00;;;;;;5096612;28;1142;-36
2022/06/14 14:20:45;;;;;;;;;;;27.10;33.80;;;;;;5097947;28;981;-36
2022/06/14 14:23:17;;;;;;;;;;;27.10;33.60;;;;;;5096814;28;1045;-44
2022/06/14 14:25:47;;;;;;;;;;;27.20;34.00;;;;;;5097212;28;1025;-44
2022/06/14 14:28:18;;;;;;;;;;;27.20;33.70;;;;;;5096674;28;1914;-44
2022/06/14 14:30:50;;;;;;;;;;;27.20;34.00;;;;;;5096704;28;1009;-43
2022/06/14 14:33:23;;;;;;;;;;;27.40;33.60;;;;;;5096490;28;945;-39
2022/06/14 14:35:53;;;;;;;;;;;27.40;33.80;;;;;;5095802;28;984;-39
2022/06/14 14:38:22;;;;;;;;;;;27.40;33.80;;;;;;5094939;28;932;-40
2022/06/14 14:43:35;;;;;;;;;;;27.50;34.00;;;;;;5079391;28;1093;-40
2022/06/14 14:46:05;;;;;;;;;;;27.30;33.70;;;;;;5096772;28;1106;-40
2022/06/14 14:48:35;;;;;;;;;;;27.30;34.10;;;;;;5096433;28;1968;-40
2022/06/14 14:51:07;;;;;;;;;;;27.40;33.20;;;;;;5096935;28;1138;-39
2022/06/14 14:53:38;;;;;;;;;;;27.50;33.30;;;;;;5095781;28;1000;-39
2022/06/14 14:56:08;;;;;;;;;;;27.50;33.60;;;;;;5095594;28;989;-40
2022/06/14 14:58:38;;;;;;;;;;;27.40;33.50;;;;;;5096924;28;1052;-42
2022/06/14 15:06:47;;;;;;;;;;;27.40;33.20;;;;;;5096496;28;895;-43
2022/06/14 15:09:16;;;;;;;;;;;27.40;33.80;;;;;;5096597;28;1905;-44
2022/06/14 15:11:50;;;;;;;;;;;27.50;33.20;;;;;;5096738;28;1016;-44
2022/06/14 15:14:18;;;;;;;;;;;27.60;32.80;;;;;;5096187;28;1022;-43
2022/06/14 15:16:50;;;;;;;;;;;27.70;32.70;;;;;;5093397;28;1111;-45
2022/06/14 15:22:14;;;;;;;;;;;27.60;33.10;;;;;;5092594;28;680;-44
2022/06/14 15:24:47;;;;;;;;;;;27.70;32.80;;;;;;5093304;28;1015;-46